createdAt,value
2022-12-05T00:01:36.674Z,17.53
2022-12-05T00:04:07.906Z,17.63
2022-12-05T00:06:36.847Z,17.70
2022-12-05T00:09:05.876Z,17.60
2022-12-05T00:11:36.748Z,18.00
2022-12-05T00:14:07.382Z,18.30
2022-12-05T00:16:36.754Z,18.43
2022-12-05T00:19:05.854Z,18.10
2022-12-05T00:21:35.910Z,17.07
2022-12-05T00:24:06.110Z,17.40
2022-12-05T00:26:34.959Z,17.30
2022-12-05T00:29:02.815Z,16.87
2022-12-05T00:31:32.320Z,16.30
2022-12-05T00:34:02.045Z,15.80
2022-12-05T00:36:31.521Z,17.13
2022-12-05T00:39:00.957Z,16.33
2022-12-05T00:41:29.880Z,16.83
2022-12-05T00:44:00.292Z,16.50
2022-12-05T00:46:30.195Z,16.47
2022-12-05T00:49:00.663Z,14.87
2022-12-05T00:51:30.416Z,16.60
2022-12-05T00:53:59.809Z,16.13
2022-12-05T00:56:29.314Z,16.30
2022-12-05T00:58:59.128Z,16.60
2022-12-05T01:01:30.220Z,17.20
2022-12-05T01:04:04.951Z,16.07
2022-12-05T01:06:32.846Z,16.63
2022-12-05T01:09:01.075Z,16.87
2022-12-05T01:11:29.692Z,16.70
2022-12-05T01:13:58.321Z,16.23
2022-12-05T01:16:28.147Z,15.97
2022-12-05T01:18:56.779Z,16.43
2022-12-05T01:21:26.606Z,15.97
2022-12-05T01:23:54.304Z,16.43
2022-12-05T01:26:23.376Z,16.40
2022-12-05T01:28:52.531Z,16.23
2022-12-05T01:31:24.137Z,16.17
2022-12-05T01:33:52.659Z,15.47
2022-12-05T01:36:22.591Z,15.70
2022-12-05T01:38:52.060Z,15.43
2022-12-05T01:41:22.392Z,16.17
2022-12-05T01:44:02.463Z,16.07
2022-12-05T01:46:32.427Z,15.40
2022-12-05T01:49:06.482Z,14.73
2022-12-05T01:51:37.165Z,14.93
2022-12-05T01:54:07.857Z,15.87
2022-12-05T01:56:36.843Z,15.97
2022-12-05T01:59:08.100Z,15.73
2022-12-05T02:01:36.561Z,15.53
2022-12-05T02:04:05.568Z,15.60
2022-12-05T02:06:33.652Z,15.17
2022-12-05T02:09:01.631Z,15.73
2022-12-05T02:11:34.385Z,16.43
2022-12-05T02:14:24.101Z,15.23
2022-12-05T02:17:03.344Z,15.47
2022-12-05T02:19:48.891Z,14.83
2022-12-05T02:22:41.894Z,15.03
2022-12-05T02:25:40.477Z,16.37
2022-12-05T02:28:36.818Z,15.30
2022-12-05T02:31:11.500Z,16.00
2022-12-05T02:33:45.244Z,16.20
2022-12-05T02:36:19.074Z,15.57
2022-12-05T02:38:55.128Z,16.63
2022-12-05T02:41:28.835Z,15.70
2022-12-05T02:44:00.540Z,16.63
2022-12-05T02:46:32.457Z,16.80
2022-12-05T02:49:03.614Z,16.20
2022-12-05T02:51:36.701Z,15.53
2022-12-05T02:54:09.124Z,16.53
2022-12-05T02:56:38.212Z,16.27
2022-12-05T02:59:06.015Z,16.63
2022-12-05T03:01:35.196Z,15.77
2022-12-05T03:04:05.966Z,15.47
2022-12-05T03:06:37.929Z,15.13
2022-12-05T03:09:10.977Z,15.77
2022-12-05T03:11:43.154Z,16.03
2022-12-05T03:14:15.773Z,17.03
2022-12-05T03:16:50.219Z,15.63
2022-12-05T03:19:22.321Z,16.10
2022-12-05T03:21:56.082Z,15.47
2022-12-05T03:24:24.372Z,15.40
2022-12-05T03:26:58.772Z,14.67
2022-12-05T03:29:32.652Z,17.60
2022-12-05T03:32:09.542Z,15.67
2022-12-05T03:34:50.990Z,14.73
2022-12-05T03:37:27.453Z,14.40
2022-12-05T03:40:07.552Z,15.10
2022-12-05T03:42:39.687Z,15.60
2022-12-05T03:45:12.195Z,14.67
2022-12-05T03:47:49.303Z,15.67
2022-12-05T03:50:22.458Z,15.10
2022-12-05T03:53:19.250Z,15.50
2022-12-05T03:55:47.015Z,14.37
2022-12-05T03:58:20.309Z,15.03
2022-12-05T04:00:53.010Z,15.40
2022-12-05T04:03:38.948Z,14.33
2022-12-05T04:06:13.185Z,14.77
2022-12-05T04:08:46.190Z,14.33
2022-12-05T04:11:18.073Z,14.97
2022-12-05T04:13:49.114Z,14.63
2022-12-05T04:16:38.360Z,14.77
2022-12-05T04:19:13.210Z,14.20
2022-12-05T04:21:44.042Z,13.23
2022-12-05T04:24:32.728Z,14.10
2022-12-05T04:27:09.546Z,13.97
2022-12-05T04:29:43.529Z,13.43
2022-12-05T04:32:14.385Z,13.80
2022-12-05T04:34:50.729Z,14.00
2022-12-05T04:37:23.759Z,14.53
2022-12-05T04:39:58.942Z,13.93
2022-12-05T04:42:29.872Z,12.50
2022-12-05T04:45:04.361Z,13.97
2022-12-05T04:47:37.043Z,13.60
2022-12-05T04:50:08.885Z,14.20
2022-12-05T04:52:37.784Z,13.80
2022-12-05T04:55:09.921Z,13.37
2022-12-05T04:57:44.417Z,13.90
2022-12-05T05:00:12.799Z,14.30
2022-12-05T05:02:45.966Z,13.80
2022-12-05T05:05:18.909Z,13.40
2022-12-05T05:07:48.077Z,13.27
2022-12-05T05:10:18.738Z,13.37
2022-12-05T05:12:46.637Z,13.73
2022-12-05T05:15:14.354Z,13.30
2022-12-05T05:17:42.091Z,13.10
2022-12-05T05:20:25.165Z,12.87
2022-12-05T05:22:55.304Z,13.57
2022-12-05T05:25:23.186Z,13.03
2022-12-05T05:27:52.093Z,13.17
2022-12-05T05:30:20.443Z,12.17
2022-12-05T05:32:48.238Z,12.53
2022-12-05T05:35:16.883Z,11.90
2022-12-05T05:37:44.976Z,13.30
2022-12-05T05:40:15.191Z,13.20
2022-12-05T05:42:44.266Z,12.73
2022-12-05T05:45:13.274Z,12.13
2022-12-05T05:47:41.286Z,12.17
2022-12-05T05:50:10.121Z,11.60
2022-12-05T05:52:39.022Z,12.43
2022-12-05T05:55:08.749Z,11.97
2022-12-05T05:57:37.916Z,12.87
2022-12-05T06:00:07.866Z,12.73
2022-12-05T06:02:36.364Z,13.67
2022-12-05T06:05:05.138Z,13.13
2022-12-05T06:07:33.033Z,12.67
2022-12-05T06:10:01.253Z,12.40
2022-12-05T06:12:29.245Z,12.77
2022-12-05T06:14:58.328Z,14.40
2022-12-05T06:17:26.254Z,13.53
2022-12-05T06:19:53.963Z,12.80
2022-12-05T06:22:21.653Z,12.00
2022-12-05T06:24:49.390Z,13.20
2022-12-05T06:27:17.153Z,13.57
2022-12-05T06:29:44.892Z,13.03
2022-12-05T06:32:13.953Z,13.83
2022-12-05T06:34:41.927Z,12.73
2022-12-05T06:37:09.803Z,12.87
2022-12-05T06:39:38.505Z,12.47
2022-12-05T06:42:06.424Z,12.70
2022-12-05T06:44:34.184Z,12.27
2022-12-05T06:47:01.866Z,12.53
2022-12-05T06:49:36.403Z,12.03
2022-12-05T06:52:05.939Z,12.87
2022-12-05T06:54:33.785Z,12.27
2022-12-05T06:57:01.568Z,12.10
2022-12-05T06:59:29.308Z,12.33
2022-12-05T07:01:56.127Z,11.93
2022-12-05T07:04:25.015Z,13.30
2022-12-05T07:06:55.853Z,12.87
2022-12-05T07:09:45.604Z,13.23
2022-12-05T07:12:13.938Z,12.00
2022-12-05T07:14:50.104Z,12.40
2022-12-05T07:17:18.351Z,12.53
2022-12-05T07:19:47.813Z,12.60
2022-12-05T07:22:17.283Z,12.13
2022-12-05T07:24:45.417Z,12.70
2022-12-05T07:27:13.838Z,12.77
2022-12-05T07:29:41.824Z,12.63
2022-12-05T07:32:09.713Z,12.73
2022-12-05T07:34:38.774Z,12.53
2022-12-05T07:37:06.818Z,13.60
2022-12-05T07:39:36.013Z,13.37
2022-12-05T07:42:03.719Z,11.60
2022-12-05T07:44:31.476Z,13.10
2022-12-05T07:46:59.554Z,13.13
2022-12-05T07:49:27.465Z,12.83
2022-12-05T07:51:55.186Z,11.60
2022-12-05T07:54:23.162Z,12.43
2022-12-05T07:56:52.199Z,12.93
2022-12-05T07:59:20.122Z,13.83
2022-12-05T08:01:47.968Z,13.30
2022-12-05T08:04:16.187Z,13.43
2022-12-05T08:06:44.556Z,13.47
2022-12-05T08:09:12.472Z,13.70
2022-12-05T08:11:40.224Z,13.50
2022-12-05T08:14:09.371Z,13.67
2022-12-05T08:16:37.467Z,14.13
2022-12-05T08:19:07.515Z,13.30
2022-12-05T08:21:35.868Z,13.20
2022-12-05T08:24:05.834Z,13.20
2022-12-05T08:26:34.801Z,12.53
2022-12-05T08:29:05.353Z,11.70
2022-12-05T08:31:37.509Z,12.23
2022-12-05T08:34:05.808Z,12.40
2022-12-05T08:36:33.796Z,12.23
2022-12-05T08:39:06.309Z,11.90
2022-12-05T08:41:35.337Z,10.60
2022-12-05T08:44:05.802Z,12.80
2022-12-05T08:46:37.507Z,13.27
2022-12-05T08:49:06.418Z,12.93
2022-12-05T08:51:34.166Z,12.60
2022-12-05T08:54:03.198Z,11.90
2022-12-05T08:56:30.966Z,12.90
2022-12-05T08:59:04.802Z,12.73
2022-12-05T09:01:38.363Z,11.00
2022-12-05T09:04:07.163Z,11.27
2022-12-05T09:06:35.967Z,11.30
2022-12-05T09:09:06.724Z,11.53
2022-12-05T09:11:36.215Z,11.27
2022-12-05T09:14:05.109Z,10.87
2022-12-05T09:16:38.475Z,11.27
2022-12-05T09:19:14.028Z,11.70
2022-12-05T09:21:42.360Z,10.73
2022-12-05T09:24:12.248Z,10.80
2022-12-05T09:26:40.899Z,11.27
2022-12-05T09:29:14.140Z,11.20
2022-12-05T09:31:45.407Z,11.90
2022-12-05T09:34:14.904Z,11.20
2022-12-05T09:36:43.022Z,11.70
2022-12-05T09:39:11.429Z,11.23
2022-12-05T09:42:08.202Z,10.97
2022-12-05T09:45:10.114Z,11.13
2022-12-05T09:47:56.291Z,10.30
2022-12-05T09:50:25.607Z,12.40
2022-12-05T09:53:03.410Z,11.63
2022-12-05T09:55:42.924Z,10.93
2022-12-05T09:58:21.830Z,11.07
2022-12-05T10:00:52.454Z,12.13
2022-12-05T10:03:27.076Z,11.67
2022-12-05T10:06:06.915Z,12.07
2022-12-05T10:08:44.070Z,11.93
2022-12-05T10:11:19.032Z,12.73
2022-12-05T10:13:55.779Z,12.00
2022-12-05T10:16:32.338Z,12.77
2022-12-05T10:19:06.672Z,13.20
2022-12-05T10:21:38.925Z,12.57
2022-12-05T10:24:15.286Z,12.93
2022-12-05T10:26:46.653Z,12.73
2022-12-05T10:29:24.818Z,12.47
2022-12-05T10:31:57.518Z,12.70
2022-12-05T10:34:32.842Z,13.83
2022-12-05T10:37:09.248Z,12.80
2022-12-05T10:39:37.235Z,13.33
2022-12-05T10:42:05.859Z,13.00
2022-12-05T10:44:35.018Z,13.00
2022-12-05T10:47:02.865Z,12.93
2022-12-05T10:49:33.745Z,13.20
2022-12-05T10:52:01.697Z,13.13
2022-12-05T10:54:31.472Z,13.00
2022-12-05T10:56:59.508Z,13.90
2022-12-05T10:59:44.731Z,13.43
2022-12-05T11:02:23.295Z,13.70
2022-12-05T11:04:53.573Z,14.00
2022-12-05T11:07:33.596Z,13.90
2022-12-05T11:10:03.370Z,14.73
2022-12-05T11:12:38.302Z,15.77
2022-12-05T11:15:21.625Z,16.10
2022-12-05T11:17:51.450Z,16.13
2022-12-05T11:20:36.971Z,16.70
2022-12-05T11:23:22.592Z,15.77
2022-12-05T11:25:50.664Z,14.53
2022-12-05T11:28:39.699Z,13.80
2022-12-05T11:31:20.740Z,15.13
2022-12-05T11:34:03.449Z,14.03
2022-12-05T11:36:39.375Z,14.63
2022-12-05T11:39:07.221Z,14.17
2022-12-05T11:41:56.274Z,13.30
2022-12-05T11:44:47.543Z,13.27
2022-12-05T11:47:29.817Z,12.77
2022-12-05T11:50:24.928Z,13.50
2022-12-05T11:53:08.011Z,13.33
2022-12-05T11:55:43.141Z,13.47
2022-12-05T11:58:34.812Z,13.40
2022-12-05T12:01:13.392Z,12.93
2022-12-05T12:04:03.714Z,13.23
2022-12-05T12:06:35.272Z,13.00
2022-12-05T12:09:30.976Z,12.70
2022-12-05T12:12:03.699Z,13.47
2022-12-05T12:14:38.399Z,11.67
2022-12-05T12:17:16.304Z,12.47
2022-12-05T12:20:02.439Z,13.47
2022-12-05T12:23:02.097Z,12.57
2022-12-05T12:25:42.555Z,13.03
2022-12-05T12:28:29.252Z,13.30
2022-12-05T12:31:16.362Z,13.47
2022-12-05T12:33:52.089Z,13.20
2022-12-05T12:36:27.333Z,11.93
2022-12-05T12:39:15.692Z,12.43
2022-12-05T12:41:57.447Z,12.93
2022-12-05T12:44:49.548Z,12.03
2022-12-05T12:47:24.537Z,11.63
2022-12-05T12:50:04.609Z,12.27
2022-12-05T12:52:44.319Z,11.93
2022-12-05T12:55:22.980Z,12.43
2022-12-05T12:58:05.878Z,12.30
2022-12-05T13:00:47.341Z,12.27
2022-12-05T13:03:20.849Z,12.23
2022-12-05T13:05:51.152Z,11.80
2022-12-05T13:08:27.522Z,12.43
2022-12-05T13:10:56.783Z,11.27
2022-12-05T13:13:33.584Z,12.37
2022-12-05T13:16:03.215Z,11.27
2022-12-05T13:18:31.044Z,10.93
2022-12-05T13:21:00.551Z,12.73
2022-12-05T13:23:30.634Z,11.60
2022-12-05T13:26:01.322Z,12.00
2022-12-05T13:28:32.609Z,11.50
2022-12-05T13:31:04.749Z,11.93
2022-12-05T13:33:36.395Z,11.70
2022-12-05T13:36:28.168Z,11.63
2022-12-05T13:39:22.258Z,12.30
2022-12-05T13:42:10.933Z,12.07
2022-12-05T13:44:43.405Z,12.17
2022-12-05T13:47:25.962Z,12.83
2022-12-05T13:49:57.903Z,12.60
2022-12-05T13:52:30.057Z,13.53
2022-12-05T13:55:01.871Z,14.87
2022-12-05T13:58:03.926Z,14.17
2022-12-05T14:00:37.011Z,14.60
2022-12-05T14:03:07.457Z,14.83
2022-12-05T14:05:44.079Z,14.47
2022-12-05T14:08:48.708Z,14.00
2022-12-05T14:11:18.117Z,13.77
2022-12-05T14:13:46.842Z,13.73
2022-12-05T14:16:52.622Z,14.87
2022-12-05T14:20:00.056Z,13.80
2022-12-05T14:22:54.469Z,13.30
2022-12-05T14:25:51.668Z,12.43
2022-12-05T14:28:39.749Z,12.87
2022-12-05T14:31:27.236Z,13.13
2022-12-05T14:34:18.918Z,12.43
2022-12-05T14:36:58.933Z,12.20
2022-12-05T14:39:38.379Z,11.43
2022-12-05T14:42:21.140Z,12.00
2022-12-05T14:44:50.640Z,11.93
2022-12-05T14:47:23.041Z,13.50
2022-12-05T14:50:02.228Z,12.40
2022-12-05T14:52:34.247Z,12.77
2022-12-05T14:55:09.528Z,11.83
2022-12-05T14:57:44.408Z,11.97
2022-12-05T15:00:21.292Z,11.13
2022-12-05T15:02:51.754Z,11.30
2022-12-05T15:05:25.229Z,11.67
2022-12-05T15:07:54.531Z,11.60
2022-12-05T15:10:24.916Z,11.20
2022-12-05T15:12:58.205Z,11.27
2022-12-05T15:15:36.117Z,12.27
2022-12-05T15:18:15.270Z,12.93
2022-12-05T15:20:51.201Z,12.70
2022-12-05T15:23:41.635Z,12.50
2022-12-05T15:26:48.328Z,12.43
2022-12-05T15:29:12.141Z,12.27
2022-12-05T15:31:46.939Z,12.57
2022-12-05T15:34:19.992Z,13.10
2022-12-05T15:36:53.093Z,12.73
2022-12-05T15:39:25.854Z,13.40
2022-12-05T15:41:54.489Z,12.83
2022-12-05T15:44:27.253Z,12.93
2022-12-05T15:46:58.673Z,13.63
2022-12-05T15:49:27.978Z,13.20
2022-12-05T15:52:15.505Z,12.07
2022-12-05T15:54:44.355Z,12.10
2022-12-05T15:57:19.031Z,12.93
2022-12-05T15:59:49.131Z,11.53
2022-12-05T16:02:22.875Z,11.80
2022-12-05T16:04:54.065Z,13.10
2022-12-05T16:07:27.037Z,12.80
2022-12-05T16:09:59.110Z,13.87
2022-12-05T16:12:32.163Z,13.97
2022-12-05T16:15:06.049Z,14.93
2022-12-05T16:17:41.354Z,14.73
2022-12-05T16:20:21.922Z,13.97
2022-12-05T16:22:52.780Z,13.53
2022-12-05T16:25:24.981Z,14.47
2022-12-05T16:28:00.626Z,14.43
2022-12-05T16:30:29.034Z,15.03
2022-12-05T16:33:02.856Z,13.93
2022-12-05T16:35:36.389Z,13.23
2022-12-05T16:38:13.326Z,12.33
2022-12-05T16:40:43.303Z,13.53
2022-12-05T16:43:21.387Z,11.70
2022-12-05T16:45:50.572Z,12.40
2022-12-05T16:48:22.137Z,12.20
2022-12-05T16:50:52.147Z,11.40
2022-12-05T16:53:28.208Z,11.67
2022-12-05T16:55:56.851Z,12.00
2022-12-05T16:58:26.803Z,12.10
2022-12-05T17:01:01.915Z,12.23
2022-12-05T17:03:36.775Z,12.50
2022-12-05T17:06:05.084Z,12.60
2022-12-05T17:08:34.283Z,12.73
2022-12-05T17:11:03.729Z,12.83
2022-12-05T17:13:32.790Z,12.20
2022-12-05T17:16:00.755Z,12.20
2022-12-05T17:18:31.832Z,11.40
2022-12-05T17:21:02.409Z,11.00
2022-12-05T17:23:30.161Z,11.20
2022-12-05T17:26:00.239Z,11.73
2022-12-05T17:28:28.040Z,11.20
2022-12-05T17:30:55.888Z,10.67
2022-12-05T17:33:23.816Z,10.83
2022-12-05T17:35:52.216Z,10.10
2022-12-05T17:38:19.944Z,10.03
2022-12-05T17:40:47.897Z,10.00
2022-12-05T17:43:22.987Z,10.17
2022-12-05T17:45:54.006Z,9.53
2022-12-05T17:48:22.285Z,10.07
2022-12-05T17:50:50.526Z,10.37
2022-12-05T17:53:20.880Z,9.57
2022-12-05T17:55:48.888Z,10.07
2022-12-05T17:58:18.699Z,9.77
2022-12-05T18:00:48.328Z,10.07
2022-12-05T18:03:17.949Z,10.50
2022-12-05T18:05:47.034Z,10.50
2022-12-05T18:08:16.578Z,9.83
2022-12-05T18:10:45.505Z,11.30
2022-12-05T18:13:13.922Z,11.57
2022-12-05T18:15:43.497Z,12.53
2022-12-05T18:18:15.969Z,10.73
2022-12-05T18:20:43.805Z,11.13
2022-12-05T18:23:11.910Z,11.70
2022-12-05T18:25:39.670Z,11.57
2022-12-05T18:28:07.542Z,11.87
2022-12-05T18:30:35.511Z,11.77
2022-12-05T18:33:04.786Z,12.30
2022-12-05T18:35:41.494Z,12.83
2022-12-05T18:38:10.949Z,11.63
2022-12-05T18:40:38.756Z,12.40
2022-12-05T18:43:06.520Z,12.30
2022-12-05T18:45:34.399Z,12.47
2022-12-05T18:48:23.346Z,13.07
2022-12-05T18:50:51.410Z,11.70
2022-12-05T18:53:19.370Z,11.80
2022-12-05T18:58:34.893Z,11.30
2022-12-05T19:01:08.248Z,10.73
2022-12-05T19:03:37.642Z,11.63
2022-12-05T19:06:14.204Z,11.27
2022-12-05T19:08:42.739Z,11.20
2022-12-05T19:11:10.525Z,11.90
2022-12-05T19:13:38.314Z,11.57
2022-12-05T19:16:08.096Z,12.03
2022-12-05T19:18:36.561Z,10.30
2022-12-05T19:21:04.714Z,9.80
2022-12-05T19:23:35.080Z,9.50
2022-12-05T19:26:04.343Z,10.30
2022-12-05T19:28:33.603Z,10.37
2022-12-05T19:31:02.059Z,9.07
2022-12-05T19:33:33.936Z,9.23
2022-12-05T19:36:06.774Z,9.23
2022-12-05T19:38:36.697Z,8.60
2022-12-05T19:41:05.629Z,9.07
2022-12-05T19:43:34.798Z,8.93
2022-12-05T19:46:04.414Z,8.87
2022-12-05T19:48:33.430Z,8.33
2022-12-05T19:51:02.858Z,8.33
2022-12-05T19:53:32.068Z,7.83
2022-12-05T19:56:06.127Z,7.93
2022-12-05T19:58:35.931Z,8.83
2022-12-05T20:01:11.860Z,8.13
2022-12-05T20:03:41.875Z,8.73
2022-12-05T20:06:12.009Z,8.40
2022-12-05T20:08:40.620Z,9.10
2022-12-05T20:11:12.589Z,8.50
2022-12-05T20:13:48.987Z,8.00
2022-12-05T20:16:19.266Z,8.90
2022-12-05T20:18:47.350Z,9.37
2022-12-05T20:21:16.676Z,9.37
2022-12-05T20:23:44.556Z,9.50
2022-12-05T20:26:15.409Z,9.87
2022-12-05T20:28:43.882Z,8.90
2022-12-05T20:31:13.819Z,9.53
2022-12-05T20:33:42.014Z,10.77
2022-12-05T20:36:12.378Z,9.77
2022-12-05T20:38:40.566Z,9.87
2022-12-05T20:41:11.061Z,10.50
2022-12-05T20:43:40.229Z,10.07
2022-12-05T20:46:10.056Z,9.97
2022-12-05T20:48:37.946Z,10.07
2022-12-05T20:51:07.073Z,10.13
2022-12-05T20:53:35.950Z,9.30
2022-12-05T20:56:06.019Z,10.00
2022-12-05T20:58:33.796Z,9.83
2022-12-05T21:01:04.932Z,10.00
2022-12-05T21:03:32.734Z,9.50
2022-12-05T21:06:00.820Z,9.93
2022-12-05T21:08:28.546Z,10.83
2022-12-05T21:10:56.225Z,9.77
2022-12-05T21:13:23.967Z,10.23
2022-12-05T21:15:51.680Z,10.60
2022-12-05T21:18:20.826Z,10.13
2022-12-05T21:20:56.897Z,10.43
2022-12-05T21:23:24.649Z,9.57
2022-12-05T21:25:52.519Z,10.17
2022-12-05T21:28:20.421Z,10.97
2022-12-05T21:30:48.435Z,10.43
2022-12-05T21:33:16.230Z,10.97
2022-12-05T21:35:54.728Z,10.77
2022-12-05T21:38:22.594Z,10.77
2022-12-05T21:40:50.263Z,10.97
2022-12-05T21:43:18.064Z,10.20
2022-12-05T21:45:50.231Z,9.57
2022-12-05T21:48:20.917Z,9.60
2022-12-05T21:50:50.360Z,9.70
2022-12-05T21:53:18.334Z,9.30
2022-12-05T21:55:46.283Z,9.87
2022-12-05T21:58:14.327Z,9.60
2022-12-05T22:00:43.042Z,10.43
2022-12-05T22:03:14.915Z,10.00
2022-12-05T22:05:43.503Z,9.90
2022-12-05T22:08:13.198Z,9.30
2022-12-05T22:10:40.970Z,10.90
2022-12-05T22:13:08.778Z,9.97
2022-12-05T22:15:36.544Z,10.07
2022-12-05T22:18:04.465Z,10.60
2022-12-05T22:20:32.271Z,10.23
2022-12-05T22:22:59.965Z,10.00
2022-12-05T22:25:29.085Z,9.97
2022-12-05T22:27:56.785Z,10.27
2022-12-05T22:30:24.793Z,10.83
2022-12-05T22:32:54.370Z,10.70
2022-12-05T22:35:22.147Z,10.27
2022-12-05T22:37:49.952Z,9.93
2022-12-05T22:40:17.892Z,10.60
2022-12-05T22:42:46.941Z,10.80
2022-12-05T22:45:14.784Z,10.23
2022-12-05T22:47:42.540Z,10.00
2022-12-05T22:50:10.947Z,11.17
2022-12-05T22:52:38.732Z,9.53
2022-12-05T22:55:07.133Z,10.40
2022-12-05T22:57:34.859Z,10.10
2022-12-05T23:00:04.743Z,11.13
2022-12-05T23:02:32.530Z,10.23
2022-12-05T23:05:00.229Z,9.53
2022-12-05T23:07:28.044Z,10.57
2022-12-05T23:09:55.769Z,10.83
2022-12-05T23:12:23.538Z,10.53
2022-12-05T23:14:51.245Z,10.40
2022-12-05T23:17:20.340Z,10.57
2022-12-05T23:19:48.067Z,10.97
2022-12-05T23:22:15.909Z,11.47
2022-12-05T23:24:43.617Z,10.80
2022-12-05T23:27:11.565Z,11.73
2022-12-05T23:29:39.294Z,10.90
2022-12-05T23:32:07.052Z,11.93
2022-12-05T23:34:36.125Z,10.53
2022-12-05T23:37:03.881Z,10.67
2022-12-05T23:39:31.703Z,11.37
2022-12-05T23:41:59.491Z,10.93
2022-12-05T23:44:27.251Z,12.20
2022-12-05T23:46:56.031Z,11.23
2022-12-05T23:49:23.805Z,10.77
2022-12-05T23:51:53.276Z,11.80
2022-12-05T23:54:21.041Z,11.20
2022-12-05T23:56:48.779Z,10.90
2022-12-05T23:59:16.528Z,11.07
